createdAt,value
2023-05-14T00:01:08.229Z,11.30
2023-05-14T00:03:35.738Z,11.10
2023-05-14T00:06:02.861Z,11.00
2023-05-14T00:08:30.030Z,11.00
2023-05-14T00:10:56.884Z,10.90
2023-05-14T00:13:24.065Z,10.80
2023-05-14T00:15:51.074Z,10.90
2023-05-14T00:18:18.014Z,10.90
2023-05-14T00:20:44.928Z,10.90
2023-05-14T00:23:11.798Z,10.80
2023-05-14T00:25:38.877Z,10.90
2023-05-14T00:28:05.718Z,11.10
2023-05-14T00:30:32.872Z,11.10
2023-05-14T00:32:59.788Z,11.10
2023-05-14T00:35:26.716Z,11.10
2023-05-14T00:37:53.938Z,11.10
2023-05-14T00:40:21.112Z,11.10
2023-05-14T00:42:48.726Z,11.10
2023-05-14T00:45:15.575Z,11.10
2023-05-14T00:47:42.527Z,11.10
2023-05-14T00:50:09.762Z,11.10
2023-05-14T00:52:37.508Z,11.00
2023-05-14T00:55:04.650Z,11.00
2023-05-14T00:57:31.702Z,11.00
2023-05-14T00:59:58.671Z,11.00
2023-05-14T01:02:26.033Z,11.10
2023-05-14T01:04:53.078Z,11.20
2023-05-14T01:07:38.919Z,11.20
2023-05-14T01:10:06.088Z,11.10
2023-05-14T01:12:51.566Z,11.00
2023-05-14T01:15:18.464Z,11.00
2023-05-14T01:17:55.795Z,10.90
2023-05-14T01:20:22.970Z,10.90
2023-05-14T01:22:50.127Z,10.90
2023-05-14T01:25:17.129Z,10.90
2023-05-14T01:27:52.462Z,10.90
2023-05-14T01:30:22.636Z,10.90
2023-05-14T01:32:51.558Z,10.80
2023-05-14T01:35:18.617Z,10.90
2023-05-14T01:37:45.690Z,10.80
2023-05-14T01:40:14.246Z,10.80
2023-05-14T01:42:41.251Z,10.80
2023-05-14T01:45:08.572Z,10.70
2023-05-14T01:47:35.774Z,10.80
2023-05-14T01:50:02.691Z,10.80
2023-05-14T01:52:30.251Z,10.70
2023-05-14T01:54:58.575Z,10.60
2023-05-14T01:57:25.811Z,10.50
2023-05-14T01:59:52.679Z,10.50
2023-05-14T02:02:19.635Z,10.40
2023-05-14T02:04:46.799Z,10.40
2023-05-14T02:07:13.958Z,10.40
2023-05-14T02:09:41.316Z,10.40
2023-05-14T02:12:08.766Z,10.30
2023-05-14T02:14:36.082Z,10.30
2023-05-14T02:17:03.702Z,10.40
2023-05-14T02:19:30.746Z,10.50
2023-05-14T02:21:58.900Z,10.50
2023-05-14T02:24:26.035Z,10.50
2023-05-14T02:26:53.177Z,10.50
2023-05-14T02:29:20.607Z,10.30
2023-05-14T02:31:47.804Z,10.30
2023-05-14T02:34:16.440Z,10.30
2023-05-14T02:36:43.313Z,10.30
2023-05-14T02:39:10.197Z,10.20
2023-05-14T02:41:37.084Z,10.30
2023-05-14T02:44:03.983Z,10.30
2023-05-14T02:46:31.434Z,10.30
2023-05-14T02:48:58.530Z,10.30
2023-05-14T02:51:26.587Z,10.20
2023-05-14T02:53:53.551Z,10.30
2023-05-14T02:56:21.326Z,10.30
2023-05-14T02:58:48.437Z,10.40
2023-05-14T03:01:15.340Z,10.40
2023-05-14T03:03:42.764Z,10.50
2023-05-14T03:06:10.326Z,10.50
2023-05-14T03:08:37.336Z,10.50
2023-05-14T03:11:04.243Z,10.30
2023-05-14T03:13:31.171Z,10.30
2023-05-14T03:15:58.095Z,10.30
2023-05-14T03:18:25.121Z,10.30
2023-05-14T03:20:52.055Z,10.30
2023-05-14T03:23:18.959Z,10.40
2023-05-14T03:25:45.893Z,10.40
2023-05-14T03:28:12.876Z,10.40
2023-05-14T03:30:39.788Z,10.40
2023-05-14T03:33:07.062Z,10.30
2023-05-14T03:35:33.969Z,10.30
2023-05-14T03:38:00.980Z,10.40
2023-05-14T03:40:27.854Z,10.40
2023-05-14T03:42:54.747Z,10.50
2023-05-14T03:45:21.725Z,10.40
2023-05-14T03:47:48.681Z,10.40
2023-05-14T03:50:15.761Z,10.40
2023-05-14T03:52:43.713Z,10.40
2023-05-14T03:55:10.674Z,10.50
2023-05-14T03:57:37.609Z,10.50
2023-05-14T04:00:04.996Z,10.50
2023-05-14T04:02:43.669Z,10.50
2023-05-14T04:05:10.938Z,10.50
2023-05-14T04:07:37.955Z,10.50
2023-05-14T04:10:05.088Z,10.50
2023-05-14T04:12:34.620Z,10.50
2023-05-14T04:15:01.794Z,10.60
2023-05-14T04:17:28.912Z,10.60
2023-05-14T04:19:56.901Z,10.50
2023-05-14T04:22:24.558Z,10.50
2023-05-14T04:24:51.907Z,10.50
2023-05-14T04:27:22.232Z,10.50
2023-05-14T04:29:49.444Z,10.50
2023-05-14T04:32:16.374Z,10.40
2023-05-14T04:34:43.415Z,10.40
2023-05-14T04:37:10.307Z,10.40
2023-05-14T04:39:38.018Z,10.40
2023-05-14T04:42:05.131Z,10.40
2023-05-14T04:44:31.974Z,10.30
2023-05-14T04:46:58.843Z,10.30
2023-05-14T04:49:25.836Z,10.20
2023-05-14T04:51:52.669Z,10.30
2023-05-14T04:54:19.565Z,10.30
2023-05-14T04:56:47.853Z,10.40
2023-05-14T04:59:14.800Z,10.40
2023-05-14T05:01:41.704Z,10.30
2023-05-14T05:04:08.867Z,10.30
2023-05-14T05:06:35.964Z,10.30
2023-05-14T05:09:02.875Z,10.30
2023-05-14T05:11:29.822Z,10.40
2023-05-14T05:13:56.700Z,10.40
2023-05-14T05:16:23.639Z,10.40
2023-05-14T05:18:50.665Z,10.40
2023-05-14T05:21:17.611Z,10.40
2023-05-14T05:23:44.509Z,10.30
2023-05-14T05:26:11.472Z,10.40
2023-05-14T05:28:38.342Z,10.30
2023-05-14T05:31:05.529Z,10.30
2023-05-14T05:33:32.423Z,10.40
2023-05-14T05:35:59.380Z,10.40
2023-05-14T05:38:26.457Z,10.40
2023-05-14T05:40:53.328Z,10.40
2023-05-14T05:43:20.198Z,10.40
2023-05-14T05:45:47.090Z,10.30
2023-05-14T05:48:13.977Z,10.20
2023-05-14T05:50:41.253Z,10.30
2023-05-14T05:53:08.088Z,10.30
2023-05-14T05:55:35.054Z,10.30
2023-05-14T05:58:02.077Z,10.40
2023-05-14T06:00:29.066Z,10.40
2023-05-14T06:02:56.758Z,10.40
2023-05-14T06:05:24.035Z,10.30
2023-05-14T06:07:51.093Z,10.20
2023-05-14T06:10:18.087Z,10.20
2023-05-14T06:12:45.044Z,10.30
2023-05-14T06:15:12.428Z,10.30
2023-05-14T06:17:39.340Z,10.40
2023-05-14T06:20:08.198Z,10.50
2023-05-14T06:22:35.059Z,10.50
2023-05-14T06:25:02.030Z,10.40
2023-05-14T06:27:28.869Z,10.40
2023-05-14T06:29:55.913Z,10.50
2023-05-14T06:32:22.893Z,10.50
2023-05-14T06:34:49.905Z,10.40
2023-05-14T06:37:16.842Z,10.30
2023-05-14T06:39:50.135Z,10.30
2023-05-14T06:42:17.462Z,10.40
2023-05-14T06:44:44.624Z,10.50
2023-05-14T06:47:11.601Z,10.60
2023-05-14T06:49:38.759Z,10.50
2023-05-14T06:52:05.883Z,10.50
2023-05-14T06:54:32.775Z,10.50
2023-05-14T06:56:59.723Z,10.60
2023-05-14T06:59:26.810Z,10.60
2023-05-14T07:01:53.770Z,10.60
2023-05-14T07:04:20.805Z,10.70
2023-05-14T07:06:47.711Z,10.70
2023-05-14T07:09:14.581Z,10.70
2023-05-14T07:11:41.793Z,10.70
2023-05-14T07:14:08.710Z,10.80
2023-05-14T07:16:36.189Z,10.80
2023-05-14T07:19:03.155Z,10.90
2023-05-14T07:21:30.152Z,10.90
2023-05-14T07:23:57.018Z,11.00
2023-05-14T07:26:24.693Z,11.00
2023-05-14T07:28:51.569Z,11.00
2023-05-14T07:31:18.534Z,11.20
2023-05-14T07:33:45.596Z,11.30
2023-05-14T07:36:12.584Z,11.40
2023-05-14T07:38:39.458Z,11.50
2023-05-14T07:41:06.431Z,11.60
2023-05-14T07:43:33.302Z,11.60
2023-05-14T07:46:00.188Z,11.70
2023-05-14T07:48:27.148Z,11.70
2023-05-14T07:50:54.137Z,11.80
2023-05-14T07:53:21.037Z,12.00
2023-05-14T07:55:48.759Z,12.20
2023-05-14T07:58:16.416Z,12.30
2023-05-14T08:00:43.277Z,12.40
2023-05-14T08:03:10.305Z,12.60
2023-05-14T08:05:37.265Z,12.70
2023-05-14T08:08:04.306Z,12.90
2023-05-14T08:10:31.376Z,12.90
2023-05-14T08:12:58.303Z,13.00
2023-05-14T08:15:27.531Z,13.00
2023-05-14T08:17:55.006Z,13.00
2023-05-14T08:20:22.729Z,12.80
2023-05-14T08:22:49.830Z,12.80
2023-05-14T08:25:16.814Z,13.10
2023-05-14T08:27:43.748Z,13.30
2023-05-14T08:30:10.817Z,13.50
2023-05-14T08:32:38.809Z,13.40
2023-05-14T08:35:05.946Z,13.40
2023-05-14T08:37:32.893Z,13.40
2023-05-14T08:40:00.094Z,13.40
2023-05-14T08:42:27.164Z,13.60
2023-05-14T08:45:00.707Z,13.70
2023-05-14T08:47:27.707Z,13.60
2023-05-14T08:50:04.723Z,13.90
2023-05-14T08:52:31.873Z,14.10
2023-05-14T08:55:03.736Z,14.40
2023-05-14T08:57:31.378Z,14.70
2023-05-14T08:59:58.631Z,14.70
2023-05-14T09:02:27.856Z,15.00
2023-05-14T09:04:56.549Z,15.00
2023-05-14T09:07:23.946Z,15.00
2023-05-14T09:09:51.205Z,15.10
2023-05-14T09:12:18.118Z,15.10
2023-05-14T09:14:45.237Z,15.40
2023-05-14T09:17:12.861Z,15.60
2023-05-14T09:19:40.632Z,15.60
2023-05-14T09:22:14.356Z,15.90
2023-05-14T09:24:41.962Z,16.30
2023-05-14T09:27:09.367Z,16.20
2023-05-14T09:29:37.282Z,16.20
2023-05-14T09:32:05.912Z,16.60
2023-05-14T09:34:33.532Z,16.70
2023-05-14T09:37:01.519Z,16.80
2023-05-14T09:39:28.516Z,16.50
2023-05-14T09:41:56.338Z,16.60
2023-05-14T09:44:23.410Z,16.70
2023-05-14T09:46:50.644Z,16.50
2023-05-14T09:49:17.636Z,16.70
2023-05-14T09:51:44.639Z,17.00
2023-05-14T09:54:11.523Z,17.00
2023-05-14T09:56:39.688Z,17.30
2023-05-14T09:59:06.618Z,17.50
2023-05-14T10:01:33.809Z,17.60
2023-05-14T10:04:00.787Z,17.60
2023-05-14T10:06:28.169Z,17.70
2023-05-14T10:08:56.225Z,17.70
2023-05-14T10:11:27.690Z,17.90
2023-05-14T10:13:54.664Z,17.90
2023-05-14T10:16:22.290Z,18.20
2023-05-14T10:18:52.053Z,18.40
2023-05-14T10:21:20.142Z,18.10
2023-05-14T10:23:47.181Z,17.90
2023-05-14T10:26:14.078Z,17.80
2023-05-14T10:28:41.002Z,17.80
2023-05-14T10:31:09.697Z,17.80
2023-05-14T10:33:55.765Z,18.00
2023-05-14T10:36:23.242Z,17.90
2023-05-14T10:38:55.031Z,18.00
2023-05-14T10:41:22.117Z,18.20
2023-05-14T10:43:49.125Z,18.20
2023-05-14T10:46:16.065Z,17.90
2023-05-14T10:48:43.196Z,18.20
2023-05-14T10:51:10.604Z,18.40
2023-05-14T10:53:38.206Z,18.60
2023-05-14T10:56:05.957Z,18.80
2023-05-14T10:58:34.932Z,18.90
2023-05-14T11:01:02.409Z,18.60
2023-05-14T11:03:29.922Z,18.30
2023-05-14T11:05:56.849Z,18.30
2023-05-14T11:08:26.494Z,18.20
2023-05-14T11:10:54.731Z,18.10
2023-05-14T11:13:21.838Z,18.20
2023-05-14T11:15:49.563Z,18.30
2023-05-14T11:18:26.606Z,18.50
2023-05-14T11:20:53.940Z,18.50
2023-05-14T11:23:22.822Z,18.70
2023-05-14T11:25:49.751Z,18.80
2023-05-14T11:28:16.647Z,18.90
2023-05-14T11:30:43.663Z,18.90
2023-05-14T11:33:10.666Z,19.00
2023-05-14T11:35:37.636Z,19.20
2023-05-14T11:38:04.541Z,19.20
2023-05-14T11:40:31.491Z,19.00
2023-05-14T11:42:58.339Z,19.10
2023-05-14T11:45:30.061Z,19.30
2023-05-14T11:47:57.059Z,19.30
2023-05-14T11:50:24.191Z,19.20
2023-05-14T11:52:51.234Z,19.30
2023-05-14T11:55:18.121Z,19.40
2023-05-14T11:57:45.142Z,19.30
2023-05-14T12:00:21.670Z,19.40
2023-05-14T12:02:50.045Z,19.50
2023-05-14T12:05:17.258Z,19.40
2023-05-14T12:07:47.534Z,19.50
2023-05-14T12:10:14.469Z,19.60
2023-05-14T12:12:41.458Z,19.50
2023-05-14T12:15:12.527Z,19.50
2023-05-14T12:17:39.993Z,19.50
2023-05-14T12:20:13.046Z,19.40
2023-05-14T12:22:41.381Z,19.50
2023-05-14T12:25:13.558Z,19.60
2023-05-14T12:27:40.737Z,19.40
2023-05-14T12:32:38.217Z,19.40
2023-05-14T12:35:05.366Z,19.50
2023-05-14T12:37:32.343Z,19.60
2023-05-14T12:39:59.172Z,19.80
2023-05-14T12:42:27.097Z,19.70
2023-05-14T12:44:54.033Z,19.80
2023-05-14T12:47:21.150Z,19.70
2023-05-14T12:49:48.100Z,19.70
2023-05-14T12:54:44.772Z,19.90
2023-05-14T12:57:11.645Z,20.00
2023-05-14T12:59:38.592Z,20.10
2023-05-14T13:02:05.599Z,20.10
2023-05-14T13:04:32.543Z,20.10
2023-05-14T13:06:59.482Z,20.10
2023-05-14T13:09:27.968Z,20.20
2023-05-14T13:11:54.877Z,20.10
2023-05-14T13:14:21.771Z,20.10
2023-05-14T13:16:48.680Z,20.20
2023-05-14T13:19:15.723Z,20.10
2023-05-14T13:21:42.874Z,20.00
2023-05-14T13:24:10.296Z,20.10
2023-05-14T13:26:37.654Z,20.10
2023-05-14T13:29:04.510Z,20.20
2023-05-14T13:31:31.469Z,20.10
2023-05-14T13:33:59.588Z,20.10
2023-05-14T13:36:26.655Z,20.20
2023-05-14T13:38:53.506Z,20.30
2023-05-14T13:41:21.833Z,20.50
2023-05-14T13:43:48.748Z,20.50
2023-05-14T13:46:15.740Z,20.60
2023-05-14T13:48:42.630Z,20.70
2023-05-14T13:51:09.510Z,20.80
2023-05-14T13:53:36.486Z,20.90
2023-05-14T13:56:03.378Z,20.90
2023-05-14T13:58:30.355Z,20.80
2023-05-14T14:00:57.225Z,20.70
2023-05-14T14:03:24.078Z,20.80
2023-05-14T14:05:52.327Z,20.70
2023-05-14T14:08:23.865Z,20.80
2023-05-14T14:10:51.261Z,20.60
2023-05-14T14:13:18.108Z,20.40
2023-05-14T14:15:45.080Z,20.50
2023-05-14T14:18:12.047Z,20.60
2023-05-14T14:20:38.995Z,20.60
2023-05-14T14:23:05.895Z,20.50
2023-05-14T14:25:32.780Z,20.60
2023-05-14T14:27:59.733Z,20.60
2023-05-14T14:30:26.637Z,20.70
2023-05-14T14:32:53.671Z,20.80
2023-05-14T14:35:21.063Z,21.00
2023-05-14T14:37:53.510Z,20.90
2023-05-14T14:40:20.409Z,20.70
2023-05-14T14:42:47.310Z,20.80
2023-05-14T14:45:14.242Z,20.90
2023-05-14T14:47:46.117Z,21.00
2023-05-14T14:50:13.398Z,21.10
2023-05-14T14:52:40.535Z,21.10
2023-05-14T14:55:07.661Z,20.80
2023-05-14T14:57:34.527Z,20.90
2023-05-14T15:00:02.551Z,21.00
2023-05-14T15:02:29.750Z,21.10
2023-05-14T15:04:56.796Z,21.10
2023-05-14T15:07:23.747Z,21.20
2023-05-14T15:09:50.691Z,21.10
2023-05-14T15:12:17.578Z,21.10
2023-05-14T15:14:44.472Z,21.10
2023-05-14T15:17:11.437Z,21.30
2023-05-14T15:19:38.367Z,21.40
2023-05-14T15:22:05.234Z,21.40
2023-05-14T15:24:32.142Z,21.30
2023-05-14T15:26:59.018Z,21.30
2023-05-14T15:29:25.945Z,21.50
2023-05-14T15:31:52.914Z,21.60
2023-05-14T15:34:19.859Z,21.70
2023-05-14T15:36:46.740Z,21.80
2023-05-14T15:39:13.618Z,21.60
2023-05-14T15:41:40.495Z,21.60
2023-05-14T15:44:07.374Z,21.60
2023-05-14T15:46:34.426Z,21.60
2023-05-14T15:49:01.310Z,21.60
2023-05-14T15:51:28.174Z,21.60
2023-05-14T15:53:55.011Z,21.70
2023-05-14T15:56:22.471Z,21.80
2023-05-14T15:58:49.680Z,21.70
2023-05-14T16:01:16.745Z,21.70
2023-05-14T16:03:43.811Z,21.70
2023-05-14T16:06:11.417Z,21.70
2023-05-14T16:08:38.475Z,21.80
2023-05-14T16:11:06.407Z,21.80
2023-05-14T16:13:33.642Z,21.80
2023-05-14T16:16:01.455Z,21.80
2023-05-14T16:18:28.442Z,21.90
2023-05-14T16:20:55.589Z,21.90
2023-05-14T16:23:22.423Z,21.90
2023-05-14T16:25:49.281Z,22.00
2023-05-14T16:28:16.201Z,22.10
2023-05-14T16:30:43.271Z,22.00
2023-05-14T16:33:10.523Z,22.00
2023-05-14T16:35:37.524Z,22.00
2023-05-14T16:38:04.453Z,21.90
2023-05-14T16:40:31.347Z,22.00
2023-05-14T16:42:58.324Z,21.90
2023-05-14T16:45:25.460Z,21.80
2023-05-14T16:47:52.822Z,21.80
2023-05-14T16:50:19.913Z,21.70
2023-05-14T16:52:46.779Z,21.70
2023-05-14T16:55:13.698Z,21.70
2023-05-14T16:57:40.608Z,21.70
2023-05-14T17:00:07.913Z,21.70
2023-05-14T17:02:34.907Z,21.80
2023-05-14T17:05:01.904Z,21.80
2023-05-14T17:07:28.941Z,21.70
2023-05-14T17:09:55.908Z,21.60
2023-05-14T17:12:23.737Z,21.40
2023-05-14T17:14:50.688Z,21.30
2023-05-14T17:17:17.761Z,21.10
2023-05-14T17:19:45.813Z,21.10
2023-05-14T17:22:14.061Z,21.00
2023-05-14T17:24:40.962Z,21.00
2023-05-14T17:27:07.999Z,21.00
2023-05-14T17:29:34.941Z,20.90
2023-05-14T17:32:03.686Z,20.90
2023-05-14T17:34:30.944Z,20.90
2023-05-14T17:36:58.116Z,20.80
2023-05-14T17:39:25.096Z,20.70
2023-05-14T17:41:52.593Z,20.70
2023-05-14T17:44:19.440Z,20.70
2023-05-14T17:46:46.446Z,20.70
2023-05-14T17:49:13.371Z,20.70
2023-05-14T17:51:40.264Z,20.70
2023-05-14T17:54:07.149Z,20.60
2023-05-14T17:56:34.111Z,20.60
2023-05-14T17:59:01.093Z,20.60
2023-05-14T18:01:28.027Z,20.50
2023-05-14T18:03:55.033Z,20.50
2023-05-14T18:06:21.898Z,20.50
2023-05-14T18:08:48.760Z,20.50
2023-05-14T18:11:15.638Z,20.40
2023-05-14T18:13:42.551Z,20.30
2023-05-14T18:16:09.465Z,20.20
2023-05-14T18:18:36.472Z,20.10
2023-05-14T18:21:03.335Z,20.20
2023-05-14T18:23:30.181Z,20.10
2023-05-14T18:25:57.115Z,20.10
2023-05-14T18:28:24.056Z,20.10
2023-05-14T18:30:51.136Z,20.00
2023-05-14T18:33:18.284Z,20.00
2023-05-14T18:35:45.179Z,20.00
2023-05-14T18:38:13.899Z,19.90
2023-05-14T18:40:41.099Z,19.80
2023-05-14T18:43:08.066Z,19.70
2023-05-14T18:45:35.039Z,19.70
2023-05-14T18:48:01.934Z,19.70
2023-05-14T18:50:28.800Z,19.60
2023-05-14T18:52:55.723Z,19.60
2023-05-14T18:55:22.903Z,19.60
2023-05-14T18:57:50.085Z,19.50
2023-05-14T19:00:17.080Z,19.40
2023-05-14T19:02:44.017Z,19.40
2023-05-14T19:05:10.935Z,19.40
2023-05-14T19:07:38.580Z,19.30
2023-05-14T19:10:05.774Z,19.20
2023-05-14T19:12:32.619Z,19.10
2023-05-14T19:14:59.493Z,19.00
2023-05-14T19:17:26.517Z,19.00
2023-05-14T19:19:53.618Z,18.80
2023-05-14T19:22:20.496Z,18.80
2023-05-14T19:24:47.405Z,18.80
2023-05-14T19:27:16.471Z,18.80
2023-05-14T19:29:43.803Z,18.70
2023-05-14T19:32:10.740Z,18.70
2023-05-14T19:34:37.644Z,18.60
2023-05-14T19:37:04.912Z,18.50
2023-05-14T19:39:32.194Z,18.40
2023-05-14T19:41:59.185Z,18.40
2023-05-14T19:44:26.069Z,18.30
2023-05-14T19:46:53.147Z,18.20
2023-05-14T19:49:20.076Z,18.20
2023-05-14T19:51:47.016Z,18.10
2023-05-14T19:54:14.830Z,18.10
2023-05-14T19:56:42.236Z,18.10
2023-05-14T19:59:09.157Z,18.00
2023-05-14T20:01:36.136Z,17.90
2023-05-14T20:04:03.100Z,17.90
2023-05-14T20:06:29.982Z,17.80
2023-05-14T20:08:56.836Z,17.80
2023-05-14T20:11:23.760Z,17.70
2023-05-14T20:13:50.618Z,17.70
2023-05-14T20:16:17.607Z,17.60
2023-05-14T20:18:44.617Z,17.60
2023-05-14T20:21:11.758Z,17.60
2023-05-14T20:23:38.624Z,17.50
2023-05-14T20:26:05.518Z,17.50
2023-05-14T20:28:32.411Z,17.50
2023-05-14T20:31:00.337Z,17.50
2023-05-14T20:33:29.231Z,17.50
2023-05-14T20:35:56.326Z,17.50
2023-05-14T20:38:23.266Z,17.50
2023-05-14T20:40:50.107Z,17.50
2023-05-14T20:43:17.063Z,17.40
2023-05-14T20:45:44.009Z,17.40
2023-05-14T20:48:12.994Z,17.40
2023-05-14T20:50:39.895Z,17.40
2023-05-14T20:53:06.833Z,17.40
2023-05-14T20:55:33.703Z,17.30
2023-05-14T20:58:00.608Z,17.30
2023-05-14T21:00:27.545Z,17.30
2023-05-14T21:02:54.630Z,17.30
2023-05-14T21:05:21.575Z,17.30
2023-05-14T21:07:48.474Z,17.30
2023-05-14T21:10:15.370Z,17.30
2023-05-14T21:12:42.830Z,17.20
2023-05-14T21:15:11.243Z,17.30
2023-05-14T21:17:38.284Z,17.20
2023-05-14T21:20:05.377Z,17.20
2023-05-14T21:22:32.319Z,17.10
2023-05-14T21:24:59.230Z,17.10
2023-05-14T21:27:26.754Z,17.10
2023-05-14T21:29:53.669Z,17.00
2023-05-14T21:32:22.306Z,17.00
2023-05-14T21:34:49.292Z,17.00
2023-05-14T21:37:16.244Z,17.00
2023-05-14T21:39:43.142Z,17.00
2023-05-14T21:42:10.087Z,16.90
2023-05-14T21:44:36.993Z,16.90
2023-05-14T21:47:04.238Z,16.90
2023-05-14T21:49:31.140Z,16.90
2023-05-14T21:51:58.064Z,16.80
2023-05-14T21:54:24.942Z,16.80
2023-05-14T21:56:51.801Z,16.70
2023-05-14T21:59:18.756Z,16.70
2023-05-14T22:02:05.619Z,16.60
2023-05-14T22:04:32.555Z,16.60
2023-05-14T22:06:59.491Z,16.50
2023-05-14T22:09:26.652Z,16.50
2023-05-14T22:11:53.527Z,16.50
2023-05-14T22:14:20.482Z,16.50
2023-05-14T22:16:47.427Z,16.40
2023-05-14T22:19:16.112Z,16.40
2023-05-14T22:21:43.129Z,16.30
2023-05-14T22:24:10.029Z,16.30
2023-05-14T22:26:36.881Z,16.30
2023-05-14T22:29:03.755Z,16.30
2023-05-14T22:31:30.755Z,16.20
2023-05-14T22:33:57.632Z,16.20
2023-05-14T22:36:24.509Z,16.30
2023-05-14T22:38:51.453Z,16.20
2023-05-14T22:41:18.448Z,16.30
2023-05-14T22:43:48.715Z,16.20
2023-05-14T22:46:16.101Z,16.20
2023-05-14T22:48:43.113Z,16.20
2023-05-14T22:51:09.990Z,16.20
2023-05-14T22:53:36.903Z,16.20
2023-05-14T22:56:03.930Z,16.20
2023-05-14T22:58:30.956Z,16.20
2023-05-14T23:00:57.863Z,16.20
2023-05-14T23:03:24.731Z,16.10
2023-05-14T23:05:52.318Z,16.10
2023-05-14T23:08:19.295Z,16.20
2023-05-14T23:10:46.287Z,16.20
2023-05-14T23:13:13.162Z,16.20
2023-05-14T23:15:40.100Z,16.20
2023-05-14T23:18:07.803Z,16.10
2023-05-14T23:20:34.879Z,16.10
2023-05-14T23:23:01.774Z,16.10
2023-05-14T23:25:28.835Z,16.10
2023-05-14T23:27:55.741Z,16.10
2023-05-14T23:30:22.639Z,16.10
2023-05-14T23:32:49.612Z,16.10
2023-05-14T23:35:16.545Z,16.10
2023-05-14T23:37:47.492Z,16.00
2023-05-14T23:40:15.843Z,16.00
2023-05-14T23:42:43.079Z,16.00
2023-05-14T23:45:10.217Z,16.00
2023-05-14T23:47:37.156Z,16.00
2023-05-14T23:50:04.126Z,16.00
2023-05-14T23:52:31.024Z,16.00
2023-05-14T23:54:57.885Z,15.90
2023-05-14T23:57:24.810Z,15.90
2023-05-14T23:59:51.708Z,15.90
